sensor_id;sensor_type;location;lat;lon;timestamp;P1;durP1;ratioP1;P2;durP2;ratioP2
68792;SDS011;55778;54.346;10.210;2022-12-07T00:01:15;19.73;;;9.45;;
68792;SDS011;55778;54.346;10.210;2022-12-07T00:03:46;19.63;;;9.10;;
68792;SDS011;55778;54.346;10.210;2022-12-07T00:06:13;19.00;;;8.93;;
68792;SDS011;55778;54.346;10.210;2022-12-07T00:08:39;19.02;;;9.15;;
68792;SDS011;55778;54.346;10.210;2022-12-07T00:11:08;21.10;;;9.60;;
68792;SDS011;55778;54.346;10.210;2022-12-07T00:13:36;18.67;;;9.10;;
68792;SDS011;55778;54.346;10.210;2022-12-07T00:16:02;20.67;;;9.82;;
68792;SDS011;55778;54.346;10.210;2022-12-07T00:18:29;22.15;;;9.90;;
68792;SDS011;55778;54.346;10.210;2022-12-07T00:21:02;19.77;;;9.10;;
68792;SDS011;55778;54.346;10.210;2022-12-07T00:23:32;21.88;;;9.43;;
68792;SDS011;55778;54.346;10.210;2022-12-07T00:26:05;23.02;;;9.23;;
68792;SDS011;55778;54.346;10.210;2022-12-07T00:28:35;20.33;;;9.73;;
68792;SDS011;55778;54.346;10.210;2022-12-07T00:31:02;18.63;;;9.18;;
68792;SDS011;55778;54.346;10.210;2022-12-07T00:33:33;22.80;;;10.38;;
68792;SDS011;55778;54.346;10.210;2022-12-07T00:35:59;20.50;;;9.00;;
68792;SDS011;55778;54.346;10.210;2022-12-07T00:38:27;22.33;;;9.43;;
68792;SDS011;55778;54.346;10.210;2022-12-07T00:40:56;21.35;;;10.25;;
68792;SDS011;55778;54.346;10.210;2022-12-07T00:43:26;21.55;;;9.68;;
68792;SDS011;55778;54.346;10.210;2022-12-07T00:45:52;20.35;;;9.88;;
68792;SDS011;55778;54.346;10.210;2022-12-07T00:48:18;21.05;;;9.50;;
68792;SDS011;55778;54.346;10.210;2022-12-07T00:50:44;22.20;;;10.10;;
68792;SDS011;55778;54.346;10.210;2022-12-07T00:53:09;20.23;;;9.38;;
68792;SDS011;55778;54.346;10.210;2022-12-07T00:55:35;23.40;;;9.82;;
68792;SDS011;55778;54.346;10.210;2022-12-07T00:58:01;19.48;;;9.07;;
68792;SDS011;55778;54.346;10.210;2022-12-07T01:00:26;21.00;;;8.63;;
68792;SDS011;55778;54.346;10.210;2022-12-07T01:02:52;19.42;;;8.95;;
68792;SDS011;55778;54.346;10.210;2022-12-07T01:05:17;19.17;;;8.40;;
68792;SDS011;55778;54.346;10.210;2022-12-07T01:07:43;15.85;;;8.10;;
68792;SDS011;55778;54.346;10.210;2022-12-07T01:10:08;17.45;;;7.63;;
68792;SDS011;55778;54.346;10.210;2022-12-07T01:12:34;18.67;;;8.10;;
68792;SDS011;55778;54.346;10.210;2022-12-07T01:15:00;16.15;;;7.55;;
68792;SDS011;55778;54.346;10.210;2022-12-07T01:17:25;16.83;;;7.60;;
68792;SDS011;55778;54.346;10.210;2022-12-07T01:19:50;19.08;;;7.82;;
68792;SDS011;55778;54.346;10.210;2022-12-07T01:22:16;16.02;;;7.43;;
68792;SDS011;55778;54.346;10.210;2022-12-07T01:24:41;18.02;;;7.60;;
68792;SDS011;55778;54.346;10.210;2022-12-07T01:27:07;10.48;;;5.55;;
68792;SDS011;55778;54.346;10.210;2022-12-07T01:29:32;15.45;;;7.38;;
68792;SDS011;55778;54.346;10.210;2022-12-07T01:31:58;17.55;;;8.10;;
68792;SDS011;55778;54.346;10.210;2022-12-07T01:34:23;15.43;;;7.78;;
68792;SDS011;55778;54.346;10.210;2022-12-07T01:36:48;20.23;;;8.15;;
68792;SDS011;55778;54.346;10.210;2022-12-07T01:39:14;15.05;;;7.35;;
68792;SDS011;55778;54.346;10.210;2022-12-07T01:41:40;19.50;;;8.35;;
68792;SDS011;55778;54.346;10.210;2022-12-07T01:44:27;18.83;;;7.68;;
68792;SDS011;55778;54.346;10.210;2022-12-07T01:47:01;18.63;;;7.80;;
68792;SDS011;55778;54.346;10.210;2022-12-07T01:49:42;17.95;;;8.82;;
68792;SDS011;55778;54.346;10.210;2022-12-07T01:54:56;18.92;;;7.88;;
68792;SDS011;55778;54.346;10.210;2022-12-07T01:57:27;17.80;;;8.02;;
68792;SDS011;55778;54.346;10.210;2022-12-07T01:59:54;20.65;;;8.63;;
68792;SDS011;55778;54.346;10.210;2022-12-07T02:02:32;18.30;;;8.45;;
68792;SDS011;55778;54.346;10.210;2022-12-07T02:05:00;20.15;;;8.45;;
68792;SDS011;55778;54.346;10.210;2022-12-07T02:07:28;17.27;;;8.35;;
68792;SDS011;55778;54.346;10.210;2022-12-07T02:09:54;20.70;;;7.60;;
68792;SDS011;55778;54.346;10.210;2022-12-07T02:12:20;21.63;;;8.98;;
68792;SDS011;55778;54.346;10.210;2022-12-07T02:14:47;22.00;;;9.75;;
68792;SDS011;55778;54.346;10.210;2022-12-07T02:17:21;21.80;;;8.57;;
68792;SDS011;55778;54.346;10.210;2022-12-07T02:22:59;20.73;;;9.18;;
68792;SDS011;55778;54.346;10.210;2022-12-07T02:30:54;23.25;;;9.48;;
68792;SDS011;55778;54.346;10.210;2022-12-07T02:33:37;25.75;;;9.40;;
68792;SDS011;55778;54.346;10.210;2022-12-07T02:36:14;28.20;;;10.55;;
68792;SDS011;55778;54.346;10.210;2022-12-07T02:41:36;25.25;;;9.95;;
68792;SDS011;55778;54.346;10.210;2022-12-07T02:44:08;28.52;;;11.18;;
68792;SDS011;55778;54.346;10.210;2022-12-07T02:46:42;25.05;;;9.20;;
68792;SDS011;55778;54.346;10.210;2022-12-07T02:49:12;16.17;;;6.93;;
68792;SDS011;55778;54.346;10.210;2022-12-07T02:51:43;17.52;;;8.07;;
68792;SDS011;55778;54.346;10.210;2022-12-07T02:54:17;21.02;;;8.55;;
68792;SDS011;55778;54.346;10.210;2022-12-07T03:02:22;30.27;;;10.52;;
68792;SDS011;55778;54.346;10.210;2022-12-07T03:05:04;23.85;;;10.13;;
68792;SDS011;55778;54.346;10.210;2022-12-07T03:08:03;23.67;;;8.88;;
68792;SDS011;55778;54.346;10.210;2022-12-07T03:15:40;25.15;;;9.82;;
68792;SDS011;55778;54.346;10.210;2022-12-07T03:18:12;21.08;;;8.32;;
68792;SDS011;55778;54.346;10.210;2022-12-07T03:20:42;24.02;;;9.13;;
68792;SDS011;55778;54.346;10.210;2022-12-07T03:23:09;25.00;;;10.00;;
68792;SDS011;55778;54.346;10.210;2022-12-07T03:25:41;25.20;;;9.48;;
68792;SDS011;55778;54.346;10.210;2022-12-07T03:28:10;19.90;;;7.35;;
68792;SDS011;55778;54.346;10.210;2022-12-07T03:30:45;24.13;;;9.35;;
68792;SDS011;55778;54.346;10.210;2022-12-07T03:33:20;25.85;;;10.05;;
68792;SDS011;55778;54.346;10.210;2022-12-07T03:35:59;21.77;;;7.70;;
68792;SDS011;55778;54.346;10.210;2022-12-07T03:38:45;16.00;;;6.43;;
68792;SDS011;55778;54.346;10.210;2022-12-07T03:41:34;25.85;;;10.18;;
68792;SDS011;55778;54.346;10.210;2022-12-07T03:44:02;19.27;;;7.88;;
68792;SDS011;55778;54.346;10.210;2022-12-07T03:49:07;21.95;;;8.68;;
68792;SDS011;55778;54.346;10.210;2022-12-07T03:51:40;22.58;;;8.65;;
68792;SDS011;55778;54.346;10.210;2022-12-07T03:54:11;21.77;;;8.10;;
68792;SDS011;55778;54.346;10.210;2022-12-07T03:57:13;16.00;;;6.78;;
68792;SDS011;55778;54.346;10.210;2022-12-07T03:59:39;21.08;;;8.07;;
68792;SDS011;55778;54.346;10.210;2022-12-07T04:02:07;18.10;;;7.13;;
68792;SDS011;55778;54.346;10.210;2022-12-07T04:04:33;20.05;;;7.45;;
68792;SDS011;55778;54.346;10.210;2022-12-07T04:06:59;18.48;;;7.10;;
68792;SDS011;55778;54.346;10.210;2022-12-07T04:09:25;19.50;;;8.23;;
68792;SDS011;55778;54.346;10.210;2022-12-07T04:11:51;18.20;;;7.90;;
68792;SDS011;55778;54.346;10.210;2022-12-07T04:14:16;20.48;;;7.85;;
68792;SDS011;55778;54.346;10.210;2022-12-07T04:16:54;20.48;;;8.63;;
68792;SDS011;55778;54.346;10.210;2022-12-07T04:19:25;22.07;;;8.43;;
68792;SDS011;55778;54.346;10.210;2022-12-07T04:21:52;19.73;;;8.27;;
68792;SDS011;55778;54.346;10.210;2022-12-07T04:24:18;21.48;;;8.38;;
68792;SDS011;55778;54.346;10.210;2022-12-07T04:26:44;21.45;;;8.82;;
68792;SDS011;55778;54.346;10.210;2022-12-07T04:29:10;21.02;;;8.02;;
68792;SDS011;55778;54.346;10.210;2022-12-07T04:31:35;16.00;;;6.63;;
68792;SDS011;55778;54.346;10.210;2022-12-07T04:34:01;20.50;;;7.43;;
68792;SDS011;55778;54.346;10.210;2022-12-07T04:36:30;20.77;;;7.90;;
68792;SDS011;55778;54.346;10.210;2022-12-07T04:38:56;20.05;;;7.97;;
68792;SDS011;55778;54.346;10.210;2022-12-07T04:41:22;20.65;;;8.07;;
68792;SDS011;55778;54.346;10.210;2022-12-07T04:43:55;17.90;;;7.30;;
68792;SDS011;55778;54.346;10.210;2022-12-07T04:46:25;22.88;;;9.40;;
68792;SDS011;55778;54.346;10.210;2022-12-07T04:48:51;22.75;;;9.30;;
68792;SDS011;55778;54.346;10.210;2022-12-07T04:51:22;23.70;;;9.40;;
68792;SDS011;55778;54.346;10.210;2022-12-07T04:53:49;21.25;;;9.07;;
68792;SDS011;55778;54.346;10.210;2022-12-07T04:56:15;21.90;;;8.75;;
68792;SDS011;55778;54.346;10.210;2022-12-07T04:58:42;24.13;;;9.13;;
68792;SDS011;55778;54.346;10.210;2022-12-07T05:01:09;21.70;;;8.63;;
68792;SDS011;55778;54.346;10.210;2022-12-07T05:03:35;22.08;;;8.75;;
68792;SDS011;55778;54.346;10.210;2022-12-07T05:06:01;25.48;;;9.30;;
68792;SDS011;55778;54.346;10.210;2022-12-07T05:08:26;21.55;;;8.32;;
68792;SDS011;55778;54.346;10.210;2022-12-07T05:10:52;24.40;;;9.68;;
68792;SDS011;55778;54.346;10.210;2022-12-07T05:13:20;22.70;;;9.20;;
68792;SDS011;55778;54.346;10.210;2022-12-07T05:15:46;19.98;;;8.88;;
68792;SDS011;55778;54.346;10.210;2022-12-07T05:18:12;22.00;;;8.75;;
68792;SDS011;55778;54.346;10.210;2022-12-07T05:20:41;22.90;;;8.45;;
68792;SDS011;55778;54.346;10.210;2022-12-07T05:23:07;20.95;;;8.70;;
68792;SDS011;55778;54.346;10.210;2022-12-07T05:25:33;21.15;;;8.25;;
68792;SDS011;55778;54.346;10.210;2022-12-07T05:27:59;22.52;;;8.73;;
68792;SDS011;55778;54.346;10.210;2022-12-07T05:30:25;22.88;;;9.05;;
68792;SDS011;55778;54.346;10.210;2022-12-07T05:32:51;20.17;;;8.18;;
68792;SDS011;55778;54.346;10.210;2022-12-07T05:35:17;21.92;;;9.18;;
68792;SDS011;55778;54.346;10.210;2022-12-07T05:37:43;22.48;;;9.25;;
68792;SDS011;55778;54.346;10.210;2022-12-07T05:40:09;26.83;;;10.57;;
68792;SDS011;55778;54.346;10.210;2022-12-07T05:42:35;23.38;;;9.57;;
68792;SDS011;55778;54.346;10.210;2022-12-07T05:45:00;22.85;;;8.60;;
68792;SDS011;55778;54.346;10.210;2022-12-07T05:47:26;22.85;;;9.05;;
68792;SDS011;55778;54.346;10.210;2022-12-07T05:49:51;24.02;;;9.10;;
68792;SDS011;55778;54.346;10.210;2022-12-07T05:52:16;23.52;;;9.35;;
68792;SDS011;55778;54.346;10.210;2022-12-07T05:54:42;23.52;;;8.88;;
68792;SDS011;55778;54.346;10.210;2022-12-07T05:57:07;22.77;;;8.77;;
68792;SDS011;55778;54.346;10.210;2022-12-07T05:59:35;23.08;;;8.75;;
68792;SDS011;55778;54.346;10.210;2022-12-07T06:02:05;21.95;;;8.13;;
68792;SDS011;55778;54.346;10.210;2022-12-07T06:04:35;21.58;;;8.80;;
68792;SDS011;55778;54.346;10.210;2022-12-07T06:07:03;23.25;;;8.30;;
68792;SDS011;55778;54.346;10.210;2022-12-07T06:09:29;21.00;;;8.43;;
68792;SDS011;55778;54.346;10.210;2022-12-07T06:11:55;21.58;;;8.68;;
68792;SDS011;55778;54.346;10.210;2022-12-07T06:14:40;22.92;;;7.82;;
68792;SDS011;55778;54.346;10.210;2022-12-07T06:17:06;22.58;;;8.63;;
68792;SDS011;55778;54.346;10.210;2022-12-07T06:19:32;20.05;;;8.00;;
68792;SDS011;55778;54.346;10.210;2022-12-07T06:21:58;22.63;;;7.75;;
68792;SDS011;55778;54.346;10.210;2022-12-07T06:24:23;19.73;;;7.80;;
68792;SDS011;55778;54.346;10.210;2022-12-07T06:26:49;21.42;;;7.47;;
68792;SDS011;55778;54.346;10.210;2022-12-07T06:29:14;20.73;;;7.47;;
68792;SDS011;55778;54.346;10.210;2022-12-07T06:31:41;17.80;;;7.13;;
68792;SDS011;55778;54.346;10.210;2022-12-07T06:34:09;18.02;;;7.05;;
68792;SDS011;55778;54.346;10.210;2022-12-07T06:36:36;21.40;;;6.70;;
68792;SDS011;55778;54.346;10.210;2022-12-07T06:39:02;18.77;;;6.68;;
68792;SDS011;55778;54.346;10.210;2022-12-07T06:41:28;15.75;;;6.25;;
68792;SDS011;55778;54.346;10.210;2022-12-07T06:43:54;12.75;;;5.28;;
68792;SDS011;55778;54.346;10.210;2022-12-07T06:46:20;20.85;;;6.18;;
68792;SDS011;55778;54.346;10.210;2022-12-07T06:48:45;15.45;;;5.55;;
68792;SDS011;55778;54.346;10.210;2022-12-07T06:51:11;12.93;;;4.93;;
68792;SDS011;55778;54.346;10.210;2022-12-07T06:53:36;11.05;;;3.35;;
68792;SDS011;55778;54.346;10.210;2022-12-07T06:56:02;12.50;;;4.03;;
68792;SDS011;55778;54.346;10.210;2022-12-07T06:58:29;10.40;;;3.92;;
68792;SDS011;55778;54.346;10.210;2022-12-07T07:00:54;12.73;;;4.38;;
68792;SDS011;55778;54.346;10.210;2022-12-07T07:03:20;13.35;;;4.53;;
68792;SDS011;55778;54.346;10.210;2022-12-07T07:05:46;8.95;;;3.63;;
68792;SDS011;55778;54.346;10.210;2022-12-07T07:08:11;11.55;;;4.85;;
68792;SDS011;55778;54.346;10.210;2022-12-07T07:10:38;9.15;;;3.95;;
68792;SDS011;55778;54.346;10.210;2022-12-07T07:13:04;14.90;;;4.10;;
68792;SDS011;55778;54.346;10.210;2022-12-07T07:15:30;12.60;;;4.68;;
68792;SDS011;55778;54.346;10.210;2022-12-07T07:17:56;9.93;;;4.20;;
68792;SDS011;55778;54.346;10.210;2022-12-07T07:20:22;13.13;;;4.63;;
68792;SDS011;55778;54.346;10.210;2022-12-07T07:22:47;12.13;;;4.80;;
68792;SDS011;55778;54.346;10.210;2022-12-07T07:25:14;11.88;;;4.95;;
68792;SDS011;55778;54.346;10.210;2022-12-07T07:27:40;11.70;;;5.22;;
68792;SDS011;55778;54.346;10.210;2022-12-07T07:30:06;12.02;;;4.75;;
68792;SDS011;55778;54.346;10.210;2022-12-07T07:32:32;12.88;;;4.93;;
68792;SDS011;55778;54.346;10.210;2022-12-07T07:34:57;9.38;;;4.25;;
68792;SDS011;55778;54.346;10.210;2022-12-07T07:37:23;11.02;;;3.95;;
68792;SDS011;55778;54.346;10.210;2022-12-07T07:39:48;15.77;;;4.13;;
68792;SDS011;55778;54.346;10.210;2022-12-07T07:42:14;10.65;;;3.92;;
68792;SDS011;55778;54.346;10.210;2022-12-07T07:44:40;9.13;;;3.90;;
68792;SDS011;55778;54.346;10.210;2022-12-07T07:47:05;12.00;;;4.00;;
68792;SDS011;55778;54.346;10.210;2022-12-07T07:49:31;10.57;;;4.60;;
68792;SDS011;55778;54.346;10.210;2022-12-07T07:51:56;7.28;;;3.13;;
68792;SDS011;55778;54.346;10.210;2022-12-07T07:54:21;13.18;;;4.38;;
68792;SDS011;55778;54.346;10.210;2022-12-07T07:56:47;12.77;;;4.10;;
68792;SDS011;55778;54.346;10.210;2022-12-07T07:59:12;9.90;;;3.40;;
68792;SDS011;55778;54.346;10.210;2022-12-07T08:01:39;11.02;;;4.30;;
68792;SDS011;55778;54.346;10.210;2022-12-07T08:04:05;8.80;;;3.63;;
68792;SDS011;55778;54.346;10.210;2022-12-07T08:06:30;8.15;;;3.70;;
68792;SDS011;55778;54.346;10.210;2022-12-07T08:08:56;9.20;;;4.05;;
68792;SDS011;55778;54.346;10.210;2022-12-07T08:11:23;8.25;;;3.97;;
68792;SDS011;55778;54.346;10.210;2022-12-07T08:13:49;10.38;;;2.90;;
68792;SDS011;55778;54.346;10.210;2022-12-07T08:16:14;7.55;;;3.25;;
68792;SDS011;55778;54.346;10.210;2022-12-07T08:18:41;15.32;;;4.40;;
68792;SDS011;55778;54.346;10.210;2022-12-07T08:21:07;7.78;;;3.28;;
68792;SDS011;55778;54.346;10.210;2022-12-07T08:23:36;10.13;;;3.70;;
68792;SDS011;55778;54.346;10.210;2022-12-07T08:26:02;10.73;;;3.60;;
68792;SDS011;55778;54.346;10.210;2022-12-07T08:28:35;8.80;;;3.50;;
68792;SDS011;55778;54.346;10.210;2022-12-07T08:31:05;8.13;;;3.72;;
68792;SDS011;55778;54.346;10.210;2022-12-07T08:33:33;11.57;;;4.07;;
68792;SDS011;55778;54.346;10.210;2022-12-07T08:36:00;7.53;;;3.63;;
68792;SDS011;55778;54.346;10.210;2022-12-07T08:38:30;8.43;;;3.72;;
68792;SDS011;55778;54.346;10.210;2022-12-07T08:40:56;7.63;;;3.75;;
68792;SDS011;55778;54.346;10.210;2022-12-07T08:43:22;8.02;;;3.05;;
68792;SDS011;55778;54.346;10.210;2022-12-07T08:45:49;7.75;;;3.38;;
68792;SDS011;55778;54.346;10.210;2022-12-07T08:48:30;8.15;;;3.08;;
68792;SDS011;55778;54.346;10.210;2022-12-07T08:50:56;9.82;;;3.03;;
68792;SDS011;55778;54.346;10.210;2022-12-07T08:53:23;5.90;;;2.33;;
68792;SDS011;55778;54.346;10.210;2022-12-07T08:55:48;7.55;;;3.05;;
68792;SDS011;55778;54.346;10.210;2022-12-07T08:58:14;8.77;;;2.53;;
68792;SDS011;55778;54.346;10.210;2022-12-07T09:00:40;7.20;;;2.25;;
68792;SDS011;55778;54.346;10.210;2022-12-07T09:03:05;4.75;;;2.10;;
68792;SDS011;55778;54.346;10.210;2022-12-07T09:05:33;9.80;;;2.30;;
68792;SDS011;55778;54.346;10.210;2022-12-07T09:07:59;5.07;;;2.00;;
68792;SDS011;55778;54.346;10.210;2022-12-07T09:10:26;7.32;;;2.30;;
68792;SDS011;55778;54.346;10.210;2022-12-07T09:12:52;6.32;;;1.90;;
68792;SDS011;55778;54.346;10.210;2022-12-07T09:15:17;7.90;;;1.80;;
68792;SDS011;55778;54.346;10.210;2022-12-07T09:17:43;6.60;;;2.00;;
68792;SDS011;55778;54.346;10.210;2022-12-07T09:20:08;7.00;;;1.80;;
68792;SDS011;55778;54.346;10.210;2022-12-07T09:22:34;3.95;;;1.77;;
68792;SDS011;55778;54.346;10.210;2022-12-07T09:25:00;8.50;;;2.53;;
68792;SDS011;55778;54.346;10.210;2022-12-07T09:27:26;7.18;;;1.60;;
68792;SDS011;55778;54.346;10.210;2022-12-07T09:29:52;7.82;;;2.17;;
68792;SDS011;55778;54.346;10.210;2022-12-07T09:32:18;6.00;;;2.38;;
68792;SDS011;55778;54.346;10.210;2022-12-07T09:34:44;5.38;;;1.88;;
68792;SDS011;55778;54.346;10.210;2022-12-07T09:37:09;7.47;;;1.67;;
68792;SDS011;55778;54.346;10.210;2022-12-07T09:39:37;7.20;;;2.55;;
68792;SDS011;55778;54.346;10.210;2022-12-07T09:42:03;2.92;;;1.70;;
68792;SDS011;55778;54.346;10.210;2022-12-07T09:44:30;4.22;;;1.80;;
68792;SDS011;55778;54.346;10.210;2022-12-07T09:46:56;2.97;;;1.30;;
68792;SDS011;55778;54.346;10.210;2022-12-07T09:49:23;8.82;;;1.42;;
68792;SDS011;55778;54.346;10.210;2022-12-07T09:52:02;3.53;;;1.20;;
68792;SDS011;55778;54.346;10.210;2022-12-07T09:54:49;2.97;;;1.35;;
68792;SDS011;55778;54.346;10.210;2022-12-07T09:57:15;3.58;;;1.20;;
68792;SDS011;55778;54.346;10.210;2022-12-07T09:59:42;3.05;;;1.33;;
68792;SDS011;55778;54.346;10.210;2022-12-07T10:05:13;3.00;;;1.17;;
68792;SDS011;55778;54.346;10.210;2022-12-07T10:07:42;3.72;;;1.42;;
68792;SDS011;55778;54.346;10.210;2022-12-07T10:10:15;2.50;;;1.05;;
68792;SDS011;55778;54.346;10.210;2022-12-07T10:15:23;3.97;;;1.00;;
68792;SDS011;55778;54.346;10.210;2022-12-07T10:17:49;3.50;;;1.00;;
68792;SDS011;55778;54.346;10.210;2022-12-07T10:20:20;4.40;;;1.30;;
68792;SDS011;55778;54.346;10.210;2022-12-07T10:22:54;1.73;;;0.82;;
68792;SDS011;55778;54.346;10.210;2022-12-07T10:25:22;4.15;;;1.10;;
68792;SDS011;55778;54.346;10.210;2022-12-07T10:27:57;4.28;;;1.10;;
68792;SDS011;55778;54.346;10.210;2022-12-07T10:30:48;2.70;;;1.02;;
68792;SDS011;55778;54.346;10.210;2022-12-07T10:36:38;3.70;;;0.80;;
68792;SDS011;55778;54.346;10.210;2022-12-07T10:39:03;1.73;;;0.60;;
68792;SDS011;55778;54.346;10.210;2022-12-07T10:41:52;3.50;;;0.73;;
68792;SDS011;55778;54.346;10.210;2022-12-07T10:44:28;1.83;;;0.82;;
68792;SDS011;55778;54.346;10.210;2022-12-07T10:55:30;2.85;;;0.65;;
68792;SDS011;55778;54.346;10.210;2022-12-07T11:01:17;2.70;;;0.80;;
68792;SDS011;55778;54.346;10.210;2022-12-07T11:14:58;3.30;;;0.77;;
68792;SDS011;55778;54.346;10.210;2022-12-07T11:28:08;3.85;;;0.73;;
68792;SDS011;55778;54.346;10.210;2022-12-07T11:31:12;2.92;;;0.80;;
68792;SDS011;55778;54.346;10.210;2022-12-07T11:33:45;2.15;;;0.80;;
68792;SDS011;55778;54.346;10.210;2022-12-07T11:39:00;2.67;;;1.10;;
68792;SDS011;55778;54.346;10.210;2022-12-07T11:41:31;2.72;;;1.17;;
68792;SDS011;55778;54.346;10.210;2022-12-07T11:44:07;4.55;;;1.08;;
68792;SDS011;55778;54.346;10.210;2022-12-07T11:46:47;1.08;;;0.80;;
68792;SDS011;55778;54.346;10.210;2022-12-07T11:49:27;2.05;;;0.88;;
68792;SDS011;55778;54.346;10.210;2022-12-07T11:52:12;3.45;;;1.02;;
68792;SDS011;55778;54.346;10.210;2022-12-07T11:54:44;2.17;;;0.90;;
68792;SDS011;55778;54.346;10.210;2022-12-07T11:57:16;1.00;;;0.60;;
68792;SDS011;55778;54.346;10.210;2022-12-07T11:59:50;2.58;;;0.80;;
68792;SDS011;55778;54.346;10.210;2022-12-07T12:02:31;2.28;;;0.75;;
68792;SDS011;55778;54.346;10.210;2022-12-07T12:05:18;0.95;;;0.60;;
68792;SDS011;55778;54.346;10.210;2022-12-07T12:08:13;1.95;;;0.68;;
68792;SDS011;55778;54.346;10.210;2022-12-07T12:13:53;1.08;;;0.68;;
68792;SDS011;55778;54.346;10.210;2022-12-07T12:24:22;0.40;;;0.40;;
68792;SDS011;55778;54.346;10.210;2022-12-07T12:26:52;1.52;;;0.50;;
68792;SDS011;55778;54.346;10.210;2022-12-07T12:29:32;1.25;;;0.70;;
68792;SDS011;55778;54.346;10.210;2022-12-07T12:32:12;1.88;;;0.50;;
68792;SDS011;55778;54.346;10.210;2022-12-07T12:40:24;4.20;;;1.25;;
68792;SDS011;55778;54.346;10.210;2022-12-07T12:42:53;0.43;;;0.40;;
68792;SDS011;55778;54.346;10.210;2022-12-07T12:45:22;0.82;;;0.40;;
68792;SDS011;55778;54.346;10.210;2022-12-07T12:47:53;2.43;;;0.60;;
68792;SDS011;55778;54.346;10.210;2022-12-07T12:55:54;1.10;;;0.70;;
68792;SDS011;55778;54.346;10.210;2022-12-07T12:58:30;0.52;;;0.50;;
68792;SDS011;55778;54.346;10.210;2022-12-07T13:03:58;3.97;;;1.00;;
68792;SDS011;55778;54.346;10.210;2022-12-07T13:08:49;1.90;;;0.80;;
68792;SDS011;55778;54.346;10.210;2022-12-07T13:11:19;1.00;;;0.70;;
68792;SDS011;55778;54.346;10.210;2022-12-07T13:17:00;0.88;;;0.63;;
68792;SDS011;55778;54.346;10.210;2022-12-07T13:22:31;2.85;;;0.68;;
68792;SDS011;55778;54.346;10.210;2022-12-07T13:24:57;3.33;;;0.80;;
68792;SDS011;55778;54.346;10.210;2022-12-07T13:27:29;1.50;;;0.63;;
68792;SDS011;55778;54.346;10.210;2022-12-07T13:29:56;2.38;;;0.80;;
68792;SDS011;55778;54.346;10.210;2022-12-07T13:32:23;1.30;;;0.80;;
68792;SDS011;55778;54.346;10.210;2022-12-07T13:34:51;1.53;;;0.50;;
68792;SDS011;55778;54.346;10.210;2022-12-07T13:37:26;2.53;;;0.60;;
68792;SDS011;55778;54.346;10.210;2022-12-07T13:39:55;1.02;;;0.70;;
68792;SDS011;55778;54.346;10.210;2022-12-07T13:42:33;2.88;;;0.82;;
68792;SDS011;55778;54.346;10.210;2022-12-07T13:45:01;3.75;;;0.80;;
68792;SDS011;55778;54.346;10.210;2022-12-07T13:47:52;1.40;;;0.70;;
68792;SDS011;55778;54.346;10.210;2022-12-07T13:50:29;2.80;;;0.70;;
68792;SDS011;55778;54.346;10.210;2022-12-07T13:52:56;3.72;;;1.10;;
68792;SDS011;55778;54.346;10.210;2022-12-07T13:55:24;2.10;;;0.90;;
68792;SDS011;55778;54.346;10.210;2022-12-07T13:57:51;2.25;;;0.80;;
68792;SDS011;55778;54.346;10.210;2022-12-07T14:00:19;2.10;;;0.60;;
68792;SDS011;55778;54.346;10.210;2022-12-07T14:05:26;1.45;;;0.88;;
68792;SDS011;55778;54.346;10.210;2022-12-07T14:10:27;1.20;;;0.90;;
68792;SDS011;55778;54.346;10.210;2022-12-07T14:12:58;3.30;;;0.70;;
68792;SDS011;55778;54.346;10.210;2022-12-07T14:15:31;2.42;;;0.70;;
68792;SDS011;55778;54.346;10.210;2022-12-07T14:17:58;1.88;;;0.60;;
68792;SDS011;55778;54.346;10.210;2022-12-07T14:22:55;1.63;;;1.15;;
68792;SDS011;55778;54.346;10.210;2022-12-07T14:25:22;3.45;;;1.00;;
68792;SDS011;55778;54.346;10.210;2022-12-07T14:27:50;1.20;;;0.65;;
68792;SDS011;55778;54.346;10.210;2022-12-07T14:30:29;1.77;;;0.90;;
68792;SDS011;55778;54.346;10.210;2022-12-07T14:33:01;1.40;;;0.70;;
68792;SDS011;55778;54.346;10.210;2022-12-07T14:35:28;0.80;;;0.65;;
68792;SDS011;55778;54.346;10.210;2022-12-07T14:37:54;2.22;;;0.60;;
68792;SDS011;55778;54.346;10.210;2022-12-07T14:40:22;0.85;;;0.60;;
68792;SDS011;55778;54.346;10.210;2022-12-07T14:42:51;1.08;;;0.80;;
68792;SDS011;55778;54.346;10.210;2022-12-07T14:45:22;1.15;;;0.60;;
68792;SDS011;55778;54.346;10.210;2022-12-07T14:47:48;2.45;;;0.70;;
68792;SDS011;55778;54.346;10.210;2022-12-07T14:50:15;2.97;;;1.38;;
68792;SDS011;55778;54.346;10.210;2022-12-07T14:52:50;1.83;;;1.15;;
68792;SDS011;55778;54.346;10.210;2022-12-07T14:57:49;2.97;;;1.10;;
68792;SDS011;55778;54.346;10.210;2022-12-07T15:00:16;3.80;;;1.50;;
68792;SDS011;55778;54.346;10.210;2022-12-07T15:02:43;4.63;;;1.90;;
68792;SDS011;55778;54.346;10.210;2022-12-07T15:05:12;5.80;;;2.45;;
68792;SDS011;55778;54.346;10.210;2022-12-07T15:07:38;2.78;;;1.60;;
68792;SDS011;55778;54.346;10.210;2022-12-07T15:10:04;7.82;;;2.45;;
68792;SDS011;55778;54.346;10.210;2022-12-07T15:12:31;10.48;;;5.03;;
68792;SDS011;55778;54.346;10.210;2022-12-07T15:14:56;2.60;;;1.30;;
68792;SDS011;55778;54.346;10.210;2022-12-07T15:17:22;4.20;;;1.15;;
68792;SDS011;55778;54.346;10.210;2022-12-07T15:19:47;4.32;;;1.80;;
68792;SDS011;55778;54.346;10.210;2022-12-07T15:22:13;2.78;;;1.73;;
68792;SDS011;55778;54.346;10.210;2022-12-07T15:24:38;7.47;;;2.75;;
68792;SDS011;55778;54.346;10.210;2022-12-07T15:27:04;3.40;;;1.80;;
68792;SDS011;55778;54.346;10.210;2022-12-07T15:29:29;3.80;;;1.40;;
68792;SDS011;55778;54.346;10.210;2022-12-07T15:31:55;3.90;;;1.85;;
68792;SDS011;55778;54.346;10.210;2022-12-07T15:34:21;5.07;;;2.67;;
68792;SDS011;55778;54.346;10.210;2022-12-07T15:36:46;7.25;;;3.28;;
68792;SDS011;55778;54.346;10.210;2022-12-07T15:39:12;3.25;;;1.65;;
68792;SDS011;55778;54.346;10.210;2022-12-07T15:41:38;6.40;;;2.28;;
68792;SDS011;55778;54.346;10.210;2022-12-07T15:44:04;4.30;;;2.25;;
68792;SDS011;55778;54.346;10.210;2022-12-07T15:46:48;4.72;;;2.20;;
68792;SDS011;55778;54.346;10.210;2022-12-07T15:49:15;3.65;;;1.85;;
68792;SDS011;55778;54.346;10.210;2022-12-07T15:51:42;3.17;;;1.98;;
68792;SDS011;55778;54.346;10.210;2022-12-07T15:54:12;4.45;;;2.63;;
68792;SDS011;55778;54.346;10.210;2022-12-07T15:56:44;3.75;;;1.95;;
68792;SDS011;55778;54.346;10.210;2022-12-07T15:59:09;3.50;;;1.60;;
68792;SDS011;55778;54.346;10.210;2022-12-07T16:01:35;5.10;;;2.25;;
68792;SDS011;55778;54.346;10.210;2022-12-07T16:04:00;18.85;;;9.70;;
68792;SDS011;55778;54.346;10.210;2022-12-07T16:06:26;23.55;;;11.18;;
68792;SDS011;55778;54.346;10.210;2022-12-07T16:08:51;4.40;;;2.42;;
68792;SDS011;55778;54.346;10.210;2022-12-07T16:11:17;6.80;;;3.45;;
68792;SDS011;55778;54.346;10.210;2022-12-07T16:13:42;9.20;;;4.32;;
68792;SDS011;55778;54.346;10.210;2022-12-07T16:16:12;16.30;;;7.65;;
68792;SDS011;55778;54.346;10.210;2022-12-07T16:18:39;22.80;;;10.43;;
68792;SDS011;55778;54.346;10.210;2022-12-07T16:21:04;28.98;;;14.73;;
68792;SDS011;55778;54.346;10.210;2022-12-07T16:23:31;8.32;;;3.78;;
68792;SDS011;55778;54.346;10.210;2022-12-07T16:26:29;11.27;;;5.15;;
68792;SDS011;55778;54.346;10.210;2022-12-07T16:28:50;11.95;;;4.55;;
68792;SDS011;55778;54.346;10.210;2022-12-07T16:31:19;5.60;;;3.30;;
68792;SDS011;55778;54.346;10.210;2022-12-07T16:33:46;7.55;;;3.17;;